Time;durP1;ratioP1;P1;durP2;ratioP2;P2;SDS_P1;SDS_P2;PMS_P1;PMS_P2;Temp;Humidity;BMP_temperature;BMP_pressure;BME280_temperature;BME280_humidity;BME280_pressure;Samples;Min_cycle;Max_cycle;Signal;HPM_P1;HPM_P2
2022/10/03 00:02:17;;;;;;;;;12.33;9.67;;;;;14.46;75.70;102316.16;4976649;28;45402;-53
2022/10/03 00:05:23;;;;;;;;;10.33;9.33;;;;;14.44;75.92;102313.56;4937818;28;45497;-55
2022/10/03 00:08:08;;;;;;;;;10.00;10.00;;;;;14.41;76.35;102316.56;4937909;28;45328;-54
2022/10/03 00:10:51;;;;;;;;;12.67;10.00;;;;;14.34;76.51;102306.50;4937793;28;45467;-54
2022/10/03 00:13:17;;;;;;;;;9.00;9.00;;;;;14.34;76.19;102314.53;4937896;28;45479;-56
2022/10/03 00:15:59;;;;;;;;;15.00;12.00;;;;;14.30;76.16;102315.78;4938011;28;45422;-55
2022/10/03 00:19:06;;;;;;;;;10.00;10.00;;;;;14.26;76.37;102323.22;4938068;28;45460;-55
2022/10/03 00:21:54;;;;;;;;;9.00;9.00;;;;;14.25;76.56;102326.88;4937634;28;45404;-55
2022/10/03 00:24:43;;;;;;;;;10.00;8.33;;;;;14.24;76.38;102322.47;4937214;28;45371;-53
2022/10/03 00:27:14;;;;;;;;;11.33;11.33;;;;;14.23;76.91;102329.66;4937897;28;45521;-54
2022/10/03 00:29:46;;;;;;;;;11.67;8.00;;;;;14.22;76.57;102327.13;4937943;28;45486;-56
2022/10/03 00:32:42;;;;;;;;;12.00;8.33;;;;;14.19;76.42;102325.56;4937275;28;45355;-52
2022/10/03 00:35:26;;;;;;;;;13.67;10.67;;;;;14.18;76.94;102323.03;4962483;28;45499;-57
2022/10/03 00:38:03;;;;;;;;;10.33;9.00;;;;;14.15;77.04;102326.81;4976245;28;45328;-52
2022/10/03 00:40:46;;;;;;;;;10.00;7.00;;;;;14.07;76.81;102315.06;4976263;28;45860;-55
2022/10/03 00:43:27;;;;;;;;;11.33;10.00;;;;;14.10;77.10;102336.22;5018029;28;45328;-56
2022/10/03 00:46:21;;;;;;;;;14.33;9.00;;;;;14.08;77.09;102333.69;5018033;28;45433;-55
2022/10/03 00:48:50;;;;;;;;;9.00;8.33;;;;;14.09;77.40;102329.16;5018307;28;45386;-57
2022/10/03 00:51:39;;;;;;;;;12.33;8.67;;;;;14.10;77.07;102328.19;5018011;28;45707;-55
2022/10/03 00:54:11;;;;;;;;;13.00;5.33;;;;;14.11;77.14;102330.72;5017593;28;47260;-53
2022/10/03 00:57:05;;;;;;;;;10.67;9.67;;;;;14.11;77.02;102336.06;5017779;28;45383;-55
2022/10/03 00:59:51;;;;;;;;;12.33;9.00;;;;;14.11;77.00;102336.06;5017739;28;45255;-48
2022/10/03 01:02:26;;;;;;;;;14.00;9.00;;;;;14.08;76.72;102333.69;5018219;28;45487;-55
2022/10/03 01:05:12;;;;;;;;;11.67;11.67;;;;;14.05;77.09;102325.06;5017875;28;45398;-49
2022/10/03 01:07:55;;;;;;;;;10.67;9.00;;;;;14.06;76.96;102330.28;5017690;28;45268;-44
2022/10/03 01:10:35;;;;;;;;;15.67;10.00;;;;;14.04;76.73;102328.72;5017694;28;45313;-44
2022/10/03 01:13:01;;;;;;;;;9.00;7.67;;;;;14.02;77.02;102323.47;5017583;28;45444;-45
2022/10/03 01:15:41;;;;;;;;;12.00;10.00;;;;;14.00;77.42;102333.47;5017523;28;45980;-54
2022/10/03 01:18:25;;;;;;;;;10.67;8.67;;;;;14.00;77.21;102330.81;5017292;28;45409;-52
2022/10/03 01:21:20;;;;;;;;;11.00;9.00;;;;;13.97;77.32;102318.53;5017482;28;45363;-55
2022/10/03 01:24:10;;;;;;;;;12.00;9.00;;;;;13.97;77.26;102325.69;5017355;28;45399;-43
2022/10/03 01:27:05;;;;;;;;;13.33;7.67;;;;;13.94;77.41;102333.97;5017051;28;47169;-44
2022/10/03 01:32:48;;;;;;;;;9.00;9.00;;;;;13.96;77.97;102318.66;5017380;28;45367;-51
2022/10/03 01:35:26;;;;;;;;;9.00;7.00;;;;;13.96;77.95;102329.38;5017433;28;45412;-44
2022/10/03 01:37:54;;;;;;;;;9.67;9.67;;;;;13.96;77.88;102324.00;5017176;28;45393;-45
2022/10/03 01:40:33;;;;;;;;;15.33;8.00;;;;;13.95;77.75;102331.19;5016836;28;45357;-44
2022/10/03 01:43:10;;;;;;;;;7.67;7.33;;;;;13.91;77.84;102320.88;5017370;28;45289;-54
2022/10/03 01:46:04;;;;;;;;;10.33;9.00;;;;;13.95;77.37;102327.69;5017226;28;45655;-52
2022/10/03 01:48:54;;;;;;;;;11.67;9.33;;;;;13.93;77.55;102313.56;5017018;28;46150;-51
2022/10/03 01:51:33;;;;;;;;;8.33;7.00;;;;;13.93;77.80;102318.91;5016697;28;45811;-44
2022/10/03 01:54:17;;;;;;;;;9.00;5.00;;;;;13.93;77.88;102321.59;5037005;28;45443;-42
2022/10/03 01:57:09;;;;;;;;;10.00;8.00;;;;;13.92;77.94;102317.22;5037044;28;45392;-53
2022/10/03 01:59:41;;;;;;;;;8.33;8.33;;;;;13.90;77.81;102311.16;5036245;28;45421;-43
2022/10/03 02:02:08;;;;;;;;;10.67;7.67;;;;;13.88;78.17;102311.28;5036567;28;45291;-44
2022/10/03 02:04:58;;;;;;;;;11.67;8.33;;;;;13.86;77.71;102304.34;5036750;28;45290;-54
2022/10/03 02:07:42;;;;;;;;;11.33;8.33;;;;;13.85;77.94;102316.03;5036708;28;45300;-56
2022/10/03 02:10:32;;;;;;;;;8.67;7.00;;;;;13.83;77.72;102310.84;5036295;28;46115;-56
2022/10/03 02:13:02;;;;;;;;;10.00;7.67;;;;;13.85;78.22;102316.03;5036494;28;45452;-53
2022/10/03 02:15:42;;;;;;;;;6.67;6.67;;;;;13.69;77.90;102282.59;5037044;28;45467;-56
2022/10/03 02:18:22;;;;;;;;;9.00;5.67;;;;;13.82;78.29;102309.16;5036794;28;45177;-47
2022/10/03 02:20:56;;;;;;;;;6.00;6.00;;;;;13.83;78.54;102313.50;5036364;28;46139;-52
2022/10/03 02:23:37;;;;;;;;;6.33;6.33;;;;;13.83;78.31;102310.00;5036594;28;45463;-56
2022/10/03 02:26:20;;;;;;;;;9.67;8.33;;;;;13.80;78.06;102304.88;5036356;28;45878;-53
2022/10/03 02:29:19;;;;;;;;;8.33;7.00;;;;;13.79;78.26;102304.03;5036876;28;45357;-51
2022/10/03 02:32:04;;;;;;;;;13.00;8.00;;;;;13.79;78.42;102313.91;5036187;28;45564;-51
2022/10/03 02:34:29;;;;;;;;;8.00;5.33;;;;;13.78;78.42;102313.06;5037132;28;45155;-45
2022/10/03 02:37:19;;;;;;;;;10.00;8.33;;;;;13.78;78.07;102310.38;5036843;28;45328;-50
2022/10/03 02:40:27;;;;;;;;;8.00;6.00;;;;;13.78;78.50;102310.38;5036460;28;45296;-54
2022/10/03 02:43:15;;;;;;;;;9.67;7.67;;;;;13.77;78.36;102316.69;5035893;28;46242;-52
2022/10/03 02:45:43;;;;;;;;;9.33;9.00;;;;;13.76;78.22;102315.00;5034578;28;45253;-50
2022/10/03 02:48:33;;;;;;;;;14.67;12.00;;;;;13.73;78.39;102316.09;5036107;28;45329;-53
2022/10/03 02:51:24;;;;;;;;;14.00;9.67;;;;;13.74;78.35;102325.00;5036550;28;45328;-49
2022/10/03 02:54:22;;;;;;;;;17.33;9.00;;;;;13.73;78.54;102323.25;5035654;28;46649;-55
2022/10/03 02:57:19;;;;;;;;;8.67;7.33;;;;;13.72;78.49;102311.72;5035661;28;45274;-50
2022/10/03 03:00:05;;;;;;;;;10.67;9.33;;;;;13.68;78.28;102310.28;5036026;28;45741;-48
2022/10/03 03:03:02;;;;;;;;;9.33;8.67;;;;;13.68;78.41;102304.09;5036013;28;46404;-46
2022/10/03 03:06:05;;;;;;;;;10.67;9.00;;;;;13.67;78.33;102307.75;4954257;28;47180;-46
2022/10/03 03:08:53;;;;;;;;;15.00;10.33;;;;;13.66;78.73;102306.91;4954658;28;45414;-48
2022/10/03 03:11:58;;;;;;;;;14.33;11.00;;;;;13.63;78.00;102303.63;4953777;28;45449;-57
2022/10/03 03:14:48;;;;;;;;;12.67;9.00;;;;;13.71;78.61;102306.50;4954974;28;45555;-51
2022/10/03 03:17:37;;;;;;;;;13.67;9.67;;;;;13.76;78.15;102319.50;4954397;28;46419;-54
2022/10/03 03:20:05;;;;;;;;;14.33;10.00;;;;;13.80;78.33;102313.75;4938291;28;45499;-55
2022/10/03 03:22:36;;;;;;;;;13.67;12.33;;;;;13.82;78.32;102321.63;4954412;28;45405;-55
2022/10/03 03:25:39;;;;;;;;;11.00;9.00;;;;;13.85;78.39;102313.38;4954385;28;45390;-52
2022/10/03 03:28:38;;;;;;;;;15.33;13.67;;;;;13.89;78.07;102318.31;4953620;28;45489;-49
2022/10/03 03:31:18;;;;;;;;;19.00;14.33;;;;;13.94;78.17;102309.91;4954274;28;45413;-52
2022/10/03 03:33:58;;;;;;;;;13.00;12.00;;;;;14.00;78.27;102306.72;4954372;28;45519;-55
2022/10/03 03:36:48;;;;;;;;;17.00;12.00;;;;;14.05;77.38;102317.03;4954348;28;45511;-52
2022/10/03 03:39:23;;;;;;;;;17.00;12.00;;;;;14.07;77.62;102317.72;4954068;28;47057;-54
2022/10/03 03:42:07;;;;;;;;;20.33;14.67;;;;;14.01;77.45;102310.25;4966564;28;45323;-51
2022/10/03 03:44:56;;;;;;;;;21.67;15.67;;;;;13.98;77.55;102311.34;5035102;28;45451;-52
2022/10/03 03:47:30;;;;;;;;;20.33;17.33;;;;;14.00;77.66;102311.22;5035535;28;45424;-53
2022/10/03 03:50:13;;;;;;;;;22.33;17.67;;;;;14.01;76.95;102310.25;5035016;28;46181;-47
2022/10/03 03:52:44;;;;;;;;;21.67;16.33;;;;;13.98;76.83;102311.34;5034871;28;45395;-49
2022/10/03 03:55:26;;;;;;;;;20.67;17.00;;;;;13.95;77.66;102311.63;5035108;28;45499;-54
2022/10/03 03:58:13;;;;;;;;;18.33;17.67;;;;;13.93;77.47;102321.59;5035342;28;45409;-56
2022/10/03 04:00:57;;;;;;;;;14.00;13.00;;;;;13.90;77.50;102314.66;5034752;28;47178;-51
2022/10/03 04:03:42;;;;;;;;;22.67;16.00;;;;;13.85;77.84;102313.38;5034877;28;45392;-53
2022/10/03 04:06:25;;;;;;;;;26.00;18.33;;;;;13.81;78.18;102315.44;5034960;28;45521;-46
2022/10/03 04:09:09;;;;;;;;;21.33;18.67;;;;;13.78;77.98;102313.06;5035279;28;45202;-55
2022/10/03 04:11:48;;;;;;;;;9.67;8.67;;;;;13.75;78.49;102315.13;5034916;28;45924;-54
2022/10/03 04:14:57;;;;;;;;;17.67;16.00;;;;;13.71;78.15;102310.03;5034732;28;45419;-54
2022/10/03 04:20:31;;;;;;;;;20.00;12.67;;;;;13.60;78.99;102317.25;4973744;28;45539;-53
2022/10/03 04:23:21;;;;;;;;;19.67;12.33;;;;;13.53;78.77;102319.59;4974816;28;46376;-42
2022/10/03 04:26:01;;;;;;;;;15.67;15.33;;;;;13.50;78.77;102316.34;4976069;28;45389;-49
2022/10/03 04:28:41;;;;;;;;;15.67;12.00;;;;;13.51;79.10;102316.19;4976514;28;45497;-53
2022/10/03 04:31:53;;;;;;;;;8.33;8.00;;;;;13.52;79.01;102322.38;4976450;28;45401;-51
2022/10/03 04:34:31;;;;;;;;;11.00;10.00;;;;;13.50;78.74;102325.19;4976072;28;47112;-50
2022/10/03 04:37:27;;;;;;;;;14.00;9.00;;;;;13.51;78.84;102323.38;4976163;28;46071;-47
2022/10/03 04:40:11;;;;;;;;;13.00;11.67;;;;;13.51;79.02;102324.22;4976409;28;45974;-52
2022/10/03 04:42:42;;;;;;;;;19.33;10.67;;;;;13.48;78.70;102321.78;4976661;28;45531;-44
2022/10/03 04:45:35;;;;;;;;;11.00;7.33;;;;;13.46;78.80;102323.75;4976209;28;46352;-43
2022/10/03 04:48:41;;;;;;;;;9.67;9.00;;;;;13.41;78.00;102318.78;4976110;28;45703;-53
2022/10/03 04:51:32;;;;;;;;;14.00;9.00;;;;;13.29;78.13;102311.78;4956461;28;45459;-42
2022/10/03 04:54:14;;;;;;;;;12.33;7.33;;;;;13.30;79.18;102324.16;4962022;28;45562;-52
2022/10/03 04:56:44;;;;;;;;;12.33;8.33;;;;;13.33;79.25;102325.75;4975982;28;45511;-43
2022/10/03 04:59:38;;;;;;;;;14.33;10.00;;;;;13.36;79.20;102330.84;4975960;28;45456;-52
2022/10/03 05:02:33;;;;;;;;;12.00;10.00;;;;;13.37;78.45;102329.88;4975990;28;45711;-44
2022/10/03 05:05:09;;;;;;;;;17.33;9.00;;;;;13.32;78.59;102330.25;4974332;28;45632;-53
2022/10/03 05:08:04;;;;;;;;;14.00;10.33;;;;;13.33;78.84;102344.44;4975816;28;46846;-43
2022/10/03 05:10:43;;;;;;;;;8.67;8.00;;;;;13.31;78.26;102333.88;4975956;28;45328;-44
2022/10/03 05:13:21;;;;;;;;;11.67;9.00;;;;;13.34;78.50;102335.44;4975991;28;45374;-51
2022/10/03 05:16:05;;;;;;;;;11.00;9.00;;;;;13.35;79.13;102332.66;4976362;28;45314;-55
2022/10/03 05:18:44;;;;;;;;;17.67;11.33;;;;;13.33;78.87;102328.41;4975922;28;45391;-53
2022/10/03 05:21:29;;;;;;;;;18.00;10.67;;;;;13.37;78.59;102330.72;4975010;28;45441;-42
2022/10/03 05:24:16;;;;;;;;;17.33;11.00;;;;;13.36;79.42;102334.38;4975972;28;45495;-46
2022/10/03 05:26:48;;;;;;;;;16.67;13.00;;;;;13.36;80.00;102333.53;4990173;28;45466;-51
2022/10/03 05:29:14;;;;;;;;;17.00;15.00;;;;;13.34;78.79;102343.47;5037264;28;45369;-46
2022/10/03 05:32:12;;;;;;;;;11.00;11.00;;;;;13.29;79.64;102345.69;5037149;28;45455;-54
2022/10/03 05:35:06;;;;;;;;;10.67;9.67;;;;;13.22;79.31;102340.81;5036495;28;45568;-53
2022/10/03 05:37:49;;;;;;;;;17.33;13.00;;;;;13.13;78.94;102346.88;5037001;28;45494;-44
2022/10/03 05:40:25;;;;;;;;;14.00;8.00;;;;;13.08;79.43;102345.56;5036138;28;46901;-48
2022/10/03 05:42:51;;;;;;;;;14.33;10.67;;;;;13.07;78.95;102357.22;5036947;28;45565;-44
2022/10/03 05:45:35;;;;;;;;;9.67;9.00;;;;;13.08;78.27;102354.44;5037175;28;45396;-52
2022/10/03 05:48:28;;;;;;;;;11.33;10.00;;;;;13.06;77.37;102347.50;5037595;28;45520;-47
2022/10/03 05:51:18;;;;;;;;;11.00;8.33;;;;;13.02;77.16;102352.25;5037080;28;46020;-48
2022/10/03 05:54:02;;;;;;;;;7.00;7.00;;;;;12.92;76.55;102357.47;5036671;28;45481;-46
2022/10/03 05:56:37;;;;;;;;;14.33;8.00;;;;;12.86;76.67;102351.78;5037030;28;45299;-46
2022/10/03 05:59:41;;;;;;;;;6.00;6.00;;;;;12.82;77.04;102353.00;5037113;28;45435;-48
2022/10/03 06:02:31;;;;;;;;;9.67;6.33;;;;;12.74;76.91;102356.28;4975050;28;46145;-48
2022/10/03 06:05:14;;;;;;;;;12.33;8.00;;;;;12.66;77.49;102354.19;4975107;28;45416;-44
2022/10/03 06:08:25;;;;;;;;;8.00;7.00;;;;;12.63;77.13;102351.75;4958989;28;45512;-44
2022/10/03 06:11:18;;;;;;;;;10.00;7.67;;;;;12.65;76.95;102346.31;4975558;28;45294;-43
2022/10/03 06:13:52;;;;;;;;;7.00;7.00;;;;;12.65;76.77;102347.16;4974950;28;46212;-43
2022/10/03 06:16:45;;;;;;;;;7.00;7.00;;;;;12.63;76.93;102338.41;4975026;28;45294;-43
2022/10/03 06:19:22;;;;;;;;;2.67;2.00;;;;;12.63;77.52;102349.09;4975170;28;45338;-43
2022/10/03 06:21:54;;;;;;;;;12.33;8.00;;;;;12.65;77.10;102352.50;4975298;28;45452;-52
2022/10/03 06:24:49;;;;;;;;;8.33;6.00;;;;;12.59;76.78;102352.97;4974649;28;45514;-44
2022/10/03 06:28:01;;;;;;;;;9.00;8.33;;;;;12.56;77.82;102353.25;4974651;28;45525;-44
2022/10/03 06:31:00;;;;;;;;;10.67;7.33;;;;;12.55;77.45;102354.19;4917366;28;45561;-46
2022/10/03 06:33:34;;;;;;;;;7.00;6.00;;;;;12.59;78.07;102357.47;4917232;28;45459;-46
2022/10/03 06:36:21;;;;;;;;;8.00;7.33;;;;;12.60;78.63;102353.81;4917031;28;46772;-44
2022/10/03 06:39:20;;;;;;;;;8.67;7.33;;;;;12.64;77.83;102352.59;4934505;28;45478;-45
2022/10/03 06:42:09;;;;;;;;;13.33;8.00;;;;;12.63;77.92;102357.09;4935954;28;45353;-47
2022/10/03 06:45:12;;;;;;;;;14.67;9.00;;;;;12.66;78.44;102348.00;4935828;28;45434;-52
2022/10/03 06:47:50;;;;;;;;;9.00;8.00;;;;;12.69;77.82;102353.97;4935705;28;46118;-44
2022/10/03 06:50:27;;;;;;;;;11.67;9.00;;;;;12.70;77.64;102370.84;4935750;28;45427;-45
2022/10/03 06:53:13;;;;;;;;;8.00;7.00;;;;;12.72;78.15;102379.56;4947975;28;45435;-43
2022/10/03 06:56:03;;;;;;;;;13.33;8.00;;;;;12.68;77.43;102365.63;4955269;28;45292;-53
2022/10/03 06:58:53;;;;;;;;;14.00;9.67;;;;;12.70;77.95;102366.34;4954792;28;46256;-52
2022/10/03 07:01:49;;;;;;;;;14.33;8.33;;;;;12.76;77.41;102364.16;4954769;28;45489;-44
2022/10/03 07:04:39;;;;;;;;;13.00;8.00;;;;;12.85;77.59;102371.44;4986696;28;45425;-51
2022/10/03 07:07:22;;;;;;;;;9.33;9.00;;;;;12.87;77.53;102370.34;5036088;28;45411;-52
2022/10/03 07:10:01;;;;;;;;;9.00;9.00;;;;;12.88;77.53;102382.72;5035801;28;46357;-56
2022/10/03 07:13:05;;;;;;;;;13.67;12.00;;;;;12.96;77.81;102376.78;5035946;28;45321;-55
2022/10/03 07:15:33;;;;;;;;;16.67;7.67;;;;;12.95;77.62;102383.94;5035896;28;45358;-56
2022/10/03 07:18:08;;;;;;;;;17.33;11.33;;;;;12.96;77.39;102376.78;5036289;28;45473;-52
2022/10/03 07:21:04;;;;;;;;;14.33;11.67;;;;;13.04;77.20;102386.84;5035788;28;46214;-49
2022/10/03 07:24:02;;;;;;;;;10.00;7.00;;;;;13.15;76.82;102390.38;5035977;28;45444;-58
2022/10/03 07:26:52;;;;;;;;;17.00;12.67;;;;;13.22;76.13;102388.91;5036216;28;45474;-52
2022/10/03 07:29:25;;;;;;;;;18.00;12.67;;;;;13.27;75.99;102380.53;5036023;28;45492;-44
2022/10/03 07:32:28;;;;;;;;;22.00;17.00;;;;;13.27;75.81;102380.53;5036002;28;45923;-52
2022/10/03 07:35:13;;;;;;;;;25.67;13.00;;;;;13.32;76.07;102382.84;5035729;28;45440;-46
2022/10/03 07:41:06;;;;;;;;;14.33;13.67;;;;;13.44;75.29;102397.88;5036174;28;45442;-49
2022/10/03 07:44:11;;;;;;;;;15.33;12.67;;;;;13.46;75.13;102396.78;5035431;28;45422;-45
2022/10/03 07:46:57;;;;;;;;;9.33;8.67;;;;;13.54;74.99;102403.34;5035443;28;45230;-43
2022/10/03 07:49:47;;;;;;;;;15.67;10.33;;;;;13.55;74.65;102402.34;5035421;28;45216;-57
2022/10/03 07:52:42;;;;;;;;;15.33;11.00;;;;;13.59;74.95;102396.63;5035517;28;45419;-48
2022/10/03 07:55:17;;;;;;;;;12.00;8.67;;;;;13.65;74.77;102397.94;5027662;28;46670;-55
2022/10/03 07:57:44;;;;;;;;;13.33;10.67;;;;;13.79;74.63;102396.81;5017329;28;45470;-42
2022/10/03 08:00:23;;;;;;;;;12.33;10.00;;;;;13.78;73.53;102395.09;5019447;28;45465;-50
2022/10/03 08:03:25;;;;;;;;;11.67;7.33;;;;;13.88;73.50;102406.75;5019282;28;45220;-47
2022/10/03 08:06:17;;;;;;;;;11.00;8.00;;;;;13.89;73.13;102408.44;5018200;28;45380;-53
2022/10/03 08:08:49;;;;;;;;;8.67;8.00;;;;;13.89;72.79;102406.59;5018897;28;45299;-46
2022/10/03 08:12:08;;;;;;;;;11.00;10.00;;;;;13.84;73.31;102410.66;5018884;28;45406;-45
2022/10/03 08:15:09;;;;;;;;;9.67;8.67;;;;;13.83;73.34;102415.16;4957569;28;45404;-43
2022/10/03 08:17:49;;;;;;;;;13.67;9.33;;;;;13.80;73.11;102406.53;4937868;28;46302;-43
2022/10/03 08:20:32;;;;;;;;;12.00;7.67;;;;;13.81;73.25;102414.41;4938089;28;45609;-45
2022/10/03 08:23:10;;;;;;;;;10.33;9.67;;;;;13.84;73.25;102410.66;4938413;28;45425;-45
2022/10/03 08:25:52;;;;;;;;;19.67;11.33;;;;;13.92;73.09;102418.88;4938229;28;45457;-46
2022/10/03 08:28:40;;;;;;;;;11.67;8.33;;;;;13.90;72.78;102407.44;4937346;28;46681;-56
2022/10/03 08:31:30;;;;;;;;;14.33;12.33;;;;;13.98;72.94;102410.34;4937772;28;45632;-42
2022/10/03 08:34:39;;;;;;;;;16.33;11.00;;;;;14.03;72.72;102407.28;4937571;28;45383;-52
2022/10/03 08:37:26;;;;;;;;;13.67;9.67;;;;;14.05;72.60;102406.19;4938767;28;45391;-45
2022/10/03 08:40:29;;;;;;;;;12.67;10.67;;;;;14.03;72.51;102400.13;4937769;28;47069;-52
2022/10/03 08:43:41;;;;;;;;;14.00;9.67;;;;;14.09;72.64;102396.06;4937590;28;45402;-52
2022/10/03 08:46:24;;;;;;;;;11.33;9.67;;;;;14.11;72.17;102402.97;4937721;28;45568;-51
2022/10/03 08:49:15;;;;;;;;;18.33;12.67;;;;;14.05;72.29;102405.34;4937791;28;45406;-46
2022/10/03 08:52:12;;;;;;;;;18.00;13.33;;;;;13.97;72.63;102401.47;4937227;28;45447;-45
2022/10/03 08:55:03;;;;;;;;;15.00;13.67;;;;;13.95;72.80;102399.91;5017855;28;45386;-43
2022/10/03 08:57:43;;;;;;;;;15.00;14.67;;;;;13.94;72.93;102395.50;5017529;28;45402;-44
2022/10/03 09:00:34;;;;;;;;;16.67;14.67;;;;;13.95;72.97;102391.88;5018390;28;45471;-51
2022/10/03 09:03:41;;;;;;;;;16.00;12.00;;;;;13.98;72.97;102395.13;5016144;28;47289;-52
2022/10/03 09:06:25;;;;;;;;;17.00;13.33;;;;;14.05;72.81;102403.50;4956491;28;45389;-50
2022/10/03 09:09:05;;;;;;;;;17.67;13.67;;;;;14.07;73.28;102404.22;4955529;28;45541;-52
2022/10/03 09:12:00;;;;;;;;;21.67;17.00;;;;;14.09;73.08;102390.72;4956925;28;45460;-52
2022/10/03 09:14:40;;;;;;;;;24.00;15.67;;;;;14.09;73.04;102396.91;4955793;28;45412;-50
2022/10/03 09:17:24;;;;;;;;;28.00;17.00;;;;;14.16;72.42;102405.28;4956288;28;45545;-52
2022/10/03 09:20:09;;;;;;;;;16.67;15.00;;;;;14.20;72.76;102417.44;4956586;28;45483;-54
2022/10/03 09:23:07;;;;;;;;;17.67;14.00;;;;;14.21;72.43;102433.34;4956591;28;45394;-53
2022/10/03 09:25:51;;;;;;;;;19.00;14.67;;;;;14.25;72.34;102433.94;4956269;28;46259;-46
2022/10/03 09:29:05;;;;;;;;;21.67;17.67;;;;;14.26;72.56;102432.97;4955987;28;45325;-50
2022/10/03 09:31:58;;;;;;;;;22.00;17.00;;;;;14.26;72.60;102437.47;4914205;28;45448;-53
2022/10/03 09:34:45;;;;;;;;;21.00;17.00;;;;;14.31;72.28;102437.94;4917735;28;45469;-44
2022/10/03 09:37:43;;;;;;;;;24.00;19.00;;;;;14.32;72.17;102436.94;4917463;28;46152;-52
2022/10/03 09:40:08;;;;;;;;;19.33;17.33;;;;;14.35;72.31;102444.72;4917513;28;45483;-54
2022/10/03 09:42:45;;;;;;;;;20.00;15.33;;;;;14.35;72.34;102445.56;4924936;28;45379;-46
2022/10/03 09:45:32;;;;;;;;;18.33;14.67;;;;;14.36;72.39;102441.06;4936993;28;46054;-48
2022/10/03 09:48:03;;;;;;;;;17.67;17.00;;;;;14.35;72.52;102436.69;4936688;28;46368;-46
2022/10/03 09:50:50;;;;;;;;;22.67;15.67;;;;;14.40;72.60;102437.97;4936566;28;45477;-44
2022/10/03 09:53:38;;;;;;;;;19.33;17.67;;;;;14.41;72.36;102441.50;4936480;28;45475;-48
2022/10/03 09:56:24;;;;;;;;;21.67;20.33;;;;;14.46;71.95;102434.81;4936849;28;45620;-47
2022/10/03 09:59:04;;;;;;;;;18.67;17.67;;;;;14.47;71.72;102430.28;4936368;28;46826;-48
2022/10/03 10:01:39;;;;;;;;;23.00;18.33;;;;;14.48;71.51;102422.16;4936671;28;45454;-49
2022/10/03 10:04:29;;;;;;;;;27.00;15.33;;;;;14.52;71.68;102420.06;4936594;28;45329;-47
2022/10/03 10:07:23;;;;;;;;;19.33;14.33;;;;;14.65;71.50;102423.38;4953855;28;45762;-47
2022/10/03 10:10:25;;;;;;;;;16.33;13.33;;;;;14.69;71.11;102411.41;5017198;28;45499;-51
2022/10/03 10:13:06;;;;;;;;;25.00;17.00;;;;;14.78;71.12;102414.28;5016835;28;45257;-49
2022/10/03 10:15:53;;;;;;;;;16.33;16.00;;;;;14.80;70.42;102413.19;5016859;28;45506;-47
2022/10/03 10:18:55;;;;;;;;;16.33;13.00;;;;;14.88;69.75;102412.53;5016951;28;45423;-47
2022/10/03 10:21:46;;;;;;;;;25.00;16.67;;;;;14.93;69.36;102408.44;5016173;28;45428;-50
2022/10/03 10:24:30;;;;;;;;;19.00;13.67;;;;;14.97;69.44;102417.91;5016628;28;45379;-47
2022/10/03 10:27:09;;;;;;;;;19.33;16.00;;;;;15.02;69.31;102409.47;5016605;28;45344;-50
2022/10/03 10:30:08;;;;;;;;;15.67;14.33;;;;;15.09;69.35;102412.47;5016848;28;46357;-49
2022/10/03 10:32:55;;;;;;;;;20.00;16.00;;;;;15.08;69.19;102411.59;5016625;28;45312;-49
2022/10/03 10:35:38;;;;;;;;;20.00;16.00;;;;;15.12;69.01;102422.88;5015195;28;45353;-48
2022/10/03 10:38:31;;;;;;;;;22.67;17.67;;;;;15.15;69.00;102415.44;5016617;28;45166;-51
2022/10/03 10:41:17;;;;;;;;;24.67;19.33;;;;;15.27;68.54;102412.66;5016672;28;45515;-50
2022/10/03 10:44:03;;;;;;;;;23.33;16.00;;;;;15.22;68.64;102408.56;5016164;28;45495;-47
2022/10/03 10:46:31;;;;;;;;;24.67;17.67;;;;;15.21;68.73;102411.34;5016228;28;45381;-48
2022/10/03 10:49:37;;;;;;;;;19.67;16.00;;;;;15.30;68.73;102396.31;5016564;28;45320;-48
2022/10/03 10:52:26;;;;;;;;;17.00;17.00;;;;;15.45;68.16;102392.22;5016534;28;45420;-47
2022/10/03 10:55:02;;;;;;;;;16.67;14.67;;;;;15.53;67.61;102387.03;5016226;28;46263;-46
2022/10/03 10:57:46;;;;;;;;;21.33;18.33;;;;;15.61;67.65;102387.16;5016074;28;45451;-47
2022/10/03 11:00:21;;;;;;;;;16.67;13.00;;;;;15.66;67.42;102398.34;5016193;28;45332;-46
2022/10/03 11:03:14;;;;;;;;;15.00;15.00;;;;;15.68;67.08;102407.13;5016371;28;45332;-46
2022/10/03 11:06:01;;;;;;;;;18.33;13.00;;;;;15.73;66.47;102411.22;5014433;28;45489;-46
2022/10/03 11:08:54;;;;;;;;;22.00;15.00;;;;;15.44;66.62;102358.34;5016174;28;45894;-47
2022/10/03 11:11:50;;;;;;;;;16.67;12.00;;;;;15.81;66.25;102406.00;5016163;28;45575;-50
2022/10/03 11:14:53;;;;;;;;;18.67;14.67;;;;;15.91;65.67;102396.97;5016062;28;45509;-48
2022/10/03 11:17:57;;;;;;;;;22.67;16.33;;;;;16.02;65.75;102409.41;5015579;28;45500;-47
2022/10/03 11:21:07;;;;;;;;;11.67;11.67;;;;;16.07;65.20;102407.13;5015968;28;45369;-50
2022/10/03 11:23:59;;;;;;;;;17.00;16.00;;;;;16.03;64.93;102405.72;5016281;28;45324;-50
2022/10/03 11:26:46;;;;;;;;;19.00;16.33;;;;;15.96;64.98;102405.44;5016133;28;45482;-47
2022/10/03 11:30:01;;;;;;;;;25.00;15.00;;;;;15.96;65.68;102402.75;5015456;28;46059;-48
2022/10/03 11:32:30;;;;;;;;;14.67;13.33;;;;;15.99;65.06;102401.63;5016976;28;45470;-45
2022/10/03 11:35:27;;;;;;;;;16.00;16.00;;;;;16.04;65.22;102403.88;5019716;28;45358;-49
2022/10/03 11:38:06;;;;;;;;;18.33;11.67;;;;;16.01;64.95;102394.25;5019652;28;45956;-48
2022/10/03 11:40:52;;;;;;;;;21.00;16.00;;;;;16.08;65.39;102394.56;5019186;28;45499;-44
2022/10/03 11:43:56;;;;;;;;;17.67;15.67;;;;;16.27;64.68;102391.03;5019108;28;45386;-49
2022/10/03 11:46:26;;;;;;;;;18.33;17.33;;;;;16.38;63.61;102383.63;5018648;28;45800;-48
2022/10/03 11:49:03;;;;;;;;;23.67;18.33;;;;;16.34;63.41;102381.38;5019472;28;45352;-50
2022/10/03 11:51:38;;;;;;;;;19.33;15.33;;;;;16.23;64.48;102390.44;5018938;28;46191;-47
2022/10/03 11:54:22;;;;;;;;;21.67;17.00;;;;;16.19;64.23;102383.66;5019062;28;46064;-46
2022/10/03 11:56:54;;;;;;;;;21.67;17.00;;;;;16.21;64.34;102379.00;5019017;28;45333;-47
2022/10/03 11:59:28;;;;;;;;;20.67;15.33;;;;;16.22;64.73;102383.38;5019099;28;45434;-45
2022/10/03 12:02:05;;;;;;;;;15.00;15.00;;;;;16.21;64.87;102382.53;5018847;28;46250;-49
2022/10/03 12:05:18;;;;;;;;;15.67;12.00;;;;;16.20;64.61;102388.03;5018826;28;45313;-50
2022/10/03 12:11:10;;;;;;;;;19.00;14.00;;;;;16.35;64.53;102377.69;4957937;28;45366;-47
2022/10/03 12:14:06;;;;;;;;;16.00;14.33;;;;;16.45;64.13;102379.38;4957538;28;47007;-49
2022/10/03 12:16:56;;;;;;;;;18.00;14.00;;;;;16.54;63.75;102377.66;4957682;28;45406;-49
2022/10/03 12:19:39;;;;;;;;;18.00;15.67;;;;;16.54;63.50;102356.16;4957752;28;45486;-49
2022/10/03 12:22:29;;;;;;;;;12.67;12.00;;;;;16.81;62.65;102368.84;4957773;28;45508;-48
2022/10/03 12:25:06;;;;;;;;;21.00;14.67;;;;;17.00;62.10;102362.50;4957301;28;46244;-47
2022/10/03 12:28:00;;;;;;;;;18.00;16.67;;;;;17.03;61.94;102351.47;4957364;28;45506;-51
2022/10/03 12:30:36;;;;;;;;;16.00;13.33;;;;;17.02;62.28;102363.19;4957312;28;45410;-51
2022/10/03 12:33:26;;;;;;;;;13.00;11.67;;;;;16.99;61.99;102358.13;4957616;28;45497;-48
2022/10/03 12:36:25;;;;;;;;;15.33;12.00;;;;;17.01;62.77;102352.59;4956914;28;46136;-46
2022/10/03 12:39:18;;;;;;;;;12.00;12.00;;;;;16.93;63.08;102351.50;4957301;28;45802;-47
2022/10/03 12:42:05;;;;;;;;;20.33;17.00;;;;;16.89;61.92;102354.63;4957319;28;45521;-47
2022/10/03 12:44:55;;;;;;;;;12.00;12.00;;;;;16.97;62.30;102346.66;5016493;28;45175;-47
2022/10/03 12:47:44;;;;;;;;;17.33;14.67;;;;;17.02;61.68;102341.69;5017811;28;46193;-49
2022/10/03 12:50:44;;;;;;;;;18.67;13.33;;;;;16.99;62.32;102333.94;5018167;28;45688;-47
2022/10/03 12:53:15;;;;;;;;;18.67;15.33;;;;;16.98;61.51;102334.06;5018132;28;45321;-50
2022/10/03 12:56:07;;;;;;;;;18.33;13.33;;;;;16.96;61.52;102327.00;5018392;28;45302;-50